North Berwick, United Kingdom
Current Conditions -  °F | °C
As of 1:50 AM on Thursday 27 Nov 2014 (Local Time) from EGQL Reporting Station
Broken Clouds Broken Clouds  
Wind Chill: 41°   Ceiling: 3000
Heat Index: 41°   Visibility: 6mi
Dew Point: 41°   Wind: 2mph
Humidity: 100%   Direction: 260°W
Pressure: 29.74"   Gusts: NA
Location:  56.06°N, 2.72°W
Report Text: EGQL 270150Z 26002KT 9999 SCT015 BKN030 05/05 Q1007 WHT
Loading
Personal Weather Stations






























Interactive Weather Map New forecast layout! Learn more

10-Day Weather Forecast

Advertisements
Track Severe Weather on mobile